Advance, Indiana
Current Conditions -  °F | °C
As of 3:15 PM on Sunday 25 Jan 2015 (Local Time) from KTYQ Reporting Station
Light Snow Light Snow  
Wind Chill: -4°   Ceiling: 300
Heat Index:   Visibility: 1.2mi
Dew Point: -1°   Wind: 10mph
Humidity: 92%   Direction: 60°ENE
Pressure: 29.65"   Gusts: NA
Location:  40°N, 86.62°W
Report Text: KTYQ 252015Z AUTO 06009KT 1 1/4SM -SN OVC003 01/M01 A2965 RMK AO2 T00061006
Loading
Personal Weather Stations






























Interactive Weather Map New forecast layout! Learn more

10-Day Weather Forecast

Advertisements
Track Severe Weather on mobile